Time;durP1;ratioP1;P1;durP2;ratioP2;P2;SDS_P1;SDS_P2;PMS_P1;PMS_P2;Temp;Humidity;BMP_temperature;BMP_pressure;BME280_temperature;BME280_humidity;BME280_pressure;Samples;Min_cycle;Max_cycle;Signal;HPM_P1;HPM_P2
2021/06/29 00:01:03;;;;;;;28.27;18.30;;;;;;;15.80;93.11;94722.47;1758850;80;21120;-58
2021/06/29 00:03:31;;;;;;;22.48;15.58;;;;;;;15.81;93.44;94722.61;1755069;80;20983;-57
2021/06/29 00:05:58;;;;;;;25.62;16.75;;;;;;;15.86;93.60;94719.15;1756353;80;20978;-58
2021/06/29 00:08:25;;;;;;;27.75;18.95;;;;;;;15.92;93.23;94714.44;1767965;80;20974;-58
2021/06/29 00:10:52;;;;;;;31.52;21.73;;;;;;;15.91;93.26;94717.08;1766428;81;21007;-58
2021/06/29 00:13:20;;;;;;;28.10;19.62;;;;;;;15.93;93.39;94715.97;1757482;81;22488;-57
2021/06/29 00:15:46;;;;;;;22.93;17.37;;;;;;;15.94;93.24;94718.88;1759102;80;21115;-58
2021/06/29 00:18:13;;;;;;;25.30;17.50;;;;;;;15.96;93.13;94712.86;1754121;80;21556;-57
2021/06/29 00:20:39;;;;;;;23.85;19.65;;;;;;;15.95;92.99;94717.63;1735766;81;20985;-57
2021/06/29 00:23:06;;;;;;;25.12;19.42;;;;;;;15.94;93.12;94713.97;1757826;80;21567;-56
2021/06/29 00:25:33;;;;;;;22.35;17.42;;;;;;;15.90;93.34;94714.16;1767993;80;21141;-58
2021/06/29 00:28:00;;;;;;;23.83;16.85;;;;;;;15.89;93.53;94712.63;1755059;80;21049;-57
2021/06/29 00:30:26;;;;;;;26.23;17.10;;;;;;;15.88;93.68;94705.56;1754038;80;21086;-56
2021/06/29 00:32:53;;;;;;;34.80;22.58;;;;;;;15.89;93.57;94705.70;1761964;80;21123;-57
2021/06/29 00:35:20;;;;;;;25.90;19.17;;;;;;;15.86;93.26;94702.50;1752973;80;20997;-56
2021/06/29 00:37:46;;;;;;;26.97;16.17;;;;;;;15.83;92.87;94705.47;1763806;80;21129;-58
2021/06/29 00:40:13;;;;;;;19.48;15.05;;;;;;;15.74;92.43;94703.57;1760712;80;21035;-56
2021/06/29 00:42:41;;;;;;;21.60;15.18;;;;;;;15.66;92.17;94704.45;1755644;81;21439;-57
2021/06/29 00:45:09;;;;;;;16.77;13.40;;;;;;;15.60;92.33;94707.77;1755260;80;21003;-56
2021/06/29 00:47:36;;;;;;;17.27;14.05;;;;;;;15.57;92.46;94708.09;1748961;81;20998;-56
2021/06/29 00:50:06;;;;;;;14.15;12.25;;;;;;;15.54;92.51;94710.44;1734465;81;21173;-57
2021/06/29 00:52:32;;;;;;;20.08;13.03;;;;;;;15.52;92.47;94712.93;1763171;80;20930;-56
2021/06/29 00:54:59;;;;;;;15.32;11.25;;;;;;;15.49;92.55;94711.13;1727047;80;21014;-58
2021/06/29 00:57:26;;;;;;;18.57;11.75;;;;;;;15.50;92.53;94702.94;1754133;80;21498;-57
2021/06/29 00:59:53;;;;;;;16.23;12.33;;;;;;;15.48;92.27;94701.28;1754041;80;20943;-58
2021/06/29 01:02:19;;;;;;;18.90;13.40;;;;;;;15.47;92.25;94698.97;1760343;80;21133;-58
2021/06/29 01:04:47;;;;;;;18.07;14.15;;;;;;;15.44;92.08;94699.33;1774300;80;20926;-58
2021/06/29 01:07:14;;;;;;;15.32;10.63;;;;;;;15.44;92.21;94704.09;1774285;80;21418;-58
2021/06/29 01:09:41;;;;;;;16.95;13.70;;;;;;;15.46;91.83;94713.47;1764333;81;20979;-57
2021/06/29 01:12:09;;;;;;;15.80;12.75;;;;;;;15.43;91.90;94718.59;1761325;80;20943;-58
2021/06/29 01:14:36;;;;;;;17.82;13.10;;;;;;;15.43;91.95;94719.98;1760846;80;21867;-56
2021/06/29 01:17:05;;;;;;;20.32;16.15;;;;;;;15.46;92.05;94727.34;1754510;80;20944;-58
2021/06/29 01:19:46;;;;;;;17.20;12.47;;;;;;;15.48;92.07;94715.14;1770030;80;21030;-58
2021/06/29 01:22:13;;;;;;;15.90;11.60;;;;;;;15.51;92.08;94715.56;1762870;80;20959;-57
2021/06/29 01:24:43;;;;;;;17.27;11.20;;;;;;;15.54;91.99;94715.98;1760384;80;21097;-57
2021/06/29 01:32:24;;;;;;;14.35;11.50;;;;;;;15.54;92.50;94700.73;1756321;80;21533;-57
2021/06/29 01:34:51;;;;;;;14.00;10.65;;;;;;;15.62;92.58;94703.27;1759998;80;20998;-57
2021/06/29 01:37:18;;;;;;;18.20;11.68;;;;;;;15.65;92.28;94712.02;1769731;81;21564;-58
2021/06/29 01:39:55;;;;;;;16.48;11.33;;;;;;;15.59;92.03;94707.62;1761556;80;21057;-58
2021/06/29 01:42:21;;;;;;;15.50;11.48;;;;;;;15.56;92.25;94698.24;1755448;80;21089;-57
2021/06/29 01:44:48;;;;;;;17.42;11.08;;;;;;;15.55;92.26;94704.28;1763455;80;21478;-56
2021/06/29 01:47:24;;;;;;;15.65;11.35;;;;;;;15.54;92.32;94700.73;1761845;80;21045;-58
2021/06/29 01:49:43;;;;;;;13.20;10.95;;;;;;;15.54;92.06;94704.14;1747801;80;21595;-58
2021/06/29 01:52:10;;;;;;;16.05;11.93;;;;;;;15.49;92.04;94698.64;1760903;80;21784;-55
2021/06/29 01:54:36;;;;;;;18.25;11.48;;;;;;;15.45;92.17;94696.70;1754275;80;20983;-58
2021/06/29 01:57:04;;;;;;;16.02;11.12;;;;;;;15.41;92.51;94694.74;1755484;80;21406;-59
2021/06/29 01:59:31;;;;;;;11.97;10.05;;;;;;;15.40;92.63;94697.34;1765707;80;20983;-58
2021/06/29 02:01:58;;;;;;;16.55;11.22;;;;;;;15.36;92.66;94689.84;1762204;80;21533;-59
2021/06/29 02:04:24;;;;;;;14.73;11.73;;;;;;;15.34;92.76;94702.05;1760073;80;21773;-59
2021/06/29 02:06:51;;;;;;;15.75;11.97;;;;;;;15.33;92.88;94701.16;1762491;80;21014;-59
2021/06/29 02:09:18;;;;;;;21.48;12.33;;;;;;;15.32;92.89;94704.53;1766319;80;21011;-58
2021/06/29 02:11:44;;;;;;;15.43;10.80;;;;;;;15.33;93.03;94718.53;1762958;81;20967;-67
2021/06/29 02:14:11;;;;;;;19.57;11.95;;;;;;;15.36;92.97;94717.58;1752401;80;21100;-67
2021/06/29 02:16:38;;;;;;;15.25;11.03;;;;;;;15.33;92.98;94714.38;1760341;80;20934;-67
2021/06/29 02:19:09;;;;;;;16.95;12.45;;;;;;;15.33;93.09;94710.22;1760036;80;20946;-67
2021/06/29 02:21:33;;;;;;;18.57;11.68;;;;;;;15.33;93.39;94701.90;1729602;80;20986;-63
2021/06/29 02:24:00;;;;;;;18.05;11.97;;;;;;;15.37;93.84;94706.63;1751976;80;20997;-63
2021/06/29 02:26:27;;;;;;;13.90;10.18;;;;;;;15.45;93.94;94700.86;1754056;80;20982;-63
2021/06/29 02:28:53;;;;;;;11.12;9.93;;;;;;;15.55;94.26;94695.97;1763550;80;21118;-64
2021/06/29 02:31:21;;;;;;;13.62;10.15;;;;;;;15.65;93.79;94700.92;1758218;80;21027;-56
2021/06/29 02:33:47;;;;;;;13.58;9.60;;;;;;;15.73;93.58;94690.95;1755549;80;21073;-56
2021/06/29 02:36:14;;;;;;;15.65;9.20;;;;;;;15.78;92.78;94695.84;1750403;80;21076;-56
2021/06/29 02:38:41;;;;;;;12.00;9.58;;;;;;;15.75;92.28;94675.23;1742797;80;21647;-57
2021/06/29 02:41:07;;;;;;;12.98;9.93;;;;;;;15.69;92.08;94668.84;1760119;80;21422;-55
2021/06/29 02:43:37;;;;;;;16.97;10.23;;;;;;;15.67;92.33;94669.30;1748677;80;20947;-58
2021/06/29 02:46:03;;;;;;;12.30;10.28;;;;;;;15.70;92.24;94672.50;1759873;80;21686;-57
2021/06/29 02:48:29;;;;;;;12.33;10.00;;;;;;;15.72;91.92;94671.39;1764591;80;21018;-60
2021/06/29 02:50:56;;;;;;;14.40;9.35;;;;;;;15.72;91.58;94672.78;1766276;80;20987;-66
2021/06/29 02:53:22;;;;;;;10.45;9.40;;;;;;;15.71;91.23;94667.73;1763233;80;21119;-63
2021/06/29 02:55:49;;;;;;;12.25;9.43;;;;;;;15.71;90.90;94674.03;1756162;80;21502;-65
2021/06/29 02:58:15;;;;;;;15.93;11.50;;;;;;;15.69;90.41;94673.00;1716971;82;21191;-64
2021/06/29 03:00:42;;;;;;;16.52;10.85;;;;;;;15.66;90.43;94674.72;1756280;80;20993;-65
2021/06/29 03:03:09;;;;;;;11.90;8.70;;;;;;;15.66;90.49;94675.32;1749666;80;21547;-65
2021/06/29 03:05:35;;;;;;;10.75;9.63;;;;;;;15.64;90.30;94676.43;1770451;80;21194;-63
2021/06/29 03:08:03;;;;;;;12.78;9.53;;;;;;;15.62;90.57;94686.63;1726570;82;20987;-62
2021/06/29 03:10:30;;;;;;;10.43;9.33;;;;;;;15.66;90.45;94679.48;1727627;82;21015;-60
2021/06/29 03:12:57;;;;;;;11.18;9.78;;;;;;;15.68;90.25;94676.99;1697357;83;20963;-55
2021/06/29 03:15:24;;;;;;;13.20;9.35;;;;;;;15.69;90.06;94668.20;1673833;83;21003;-56
2021/06/29 03:17:51;;;;;;;14.78;9.60;;;;;;;15.68;89.84;94668.06;1687339;83;21211;-58
2021/06/29 03:20:17;;;;;;;13.35;9.40;;;;;;;15.70;90.09;94664.18;1758017;80;21672;-58
2021/06/29 03:22:44;;;;;;;18.80;10.00;;;;;;;15.78;90.29;94666.71;1757000;80;21540;-58
2021/06/29 03:25:11;;;;;;;11.53;9.68;;;;;;;15.85;90.14;94668.30;1756588;80;21453;-58
2021/06/29 03:27:38;;;;;;;9.13;8.23;;;;;;;15.93;90.07;94666.02;1760694;80;21005;-56
2021/06/29 03:30:07;;;;;;;13.22;9.20;;;;;;;15.99;89.69;94658.56;1758986;80;21139;-57
2021/06/29 03:32:34;;;;;;;11.28;8.55;;;;;;;15.99;89.54;94667.49;1722252;82;21088;-56
2021/06/29 03:35:07;;;;;;;12.00;9.73;;;;;;;16.01;89.67;94661.61;1708863;83;21004;-56
2021/06/29 03:37:30;;;;;;;11.68;8.70;;;;;;;16.08;89.63;94657.03;1750239;80;21490;-57
2021/06/29 03:39:56;;;;;;;10.60;8.10;;;;;;;16.21;89.56;94667.18;1750326;80;20958;-57
2021/06/29 03:42:23;;;;;;;10.58;7.92;;;;;;;16.29;89.13;94665.50;1769715;80;21217;-56
2021/06/29 03:44:49;;;;;;;9.45;8.45;;;;;;;16.32;88.93;94663.14;1723872;82;20982;-57
2021/06/29 03:47:16;;;;;;;11.20;8.28;;;;;;;16.35;88.94;94672.69;1772985;80;21679;-56
2021/06/29 03:49:43;;;;;;;10.53;7.97;;;;;;;16.36;88.51;94678.38;1760504;80;20979;-57
2021/06/29 03:52:09;;;;;;;11.08;8.10;;;;;;;16.35;88.47;94686.57;1764544;80;21501;-57
2021/06/29 03:54:36;;;;;;;10.45;7.53;;;;;;;16.36;88.51;94681.80;1761303;80;21077;-56
2021/06/29 03:57:04;;;;;;;14.30;7.30;;;;;;;16.37;88.27;94679.16;1723175;82;21037;-57
2021/06/29 03:59:30;;;;;;;10.98;8.38;;;;;;;16.35;88.42;94675.47;1754927;80;21028;-56
2021/06/29 04:01:57;;;;;;;15.18;8.38;;;;;;;16.33;88.58;94681.35;1718101;82;20928;-56
2021/06/29 04:04:24;;;;;;;12.88;7.67;;;;;;;16.35;88.84;94680.27;1705927;82;21010;-56
2021/06/29 04:06:51;;;;;;;10.72;8.03;;;;;;;16.35;88.94;94680.27;1746114;80;21155;-57
2021/06/29 04:09:17;;;;;;;8.73;7.80;;;;;;;16.37;89.19;94677.77;1743144;80;21206;-56
2021/06/29 04:11:44;;;;;;;8.30;7.50;;;;;;;16.42;89.20;94672.29;1755539;80;21050;-56
2021/06/29 04:14:11;;;;;;;10.18;7.62;;;;;;;16.48;89.13;94683.44;1751620;81;21060;-56
2021/06/29 04:16:37;;;;;;;8.30;7.50;;;;;;;16.55;89.03;94680.27;1761531;80;20930;-57
2021/06/29 04:19:04;;;;;;;10.08;7.65;;;;;;;16.62;89.00;94685.39;1765568;80;21112;-56
2021/06/29 04:21:31;;;;;;;11.05;8.20;;;;;;;16.68;88.77;94687.59;1752220;80;20987;-57
2021/06/29 04:24:04;;;;;;;7.92;6.70;;;;;;;16.76;88.53;94687.33;1757198;80;21053;-57
2021/06/29 04:26:26;;;;;;;10.72;7.42;;;;;;;16.83;88.28;94683.50;1718932;82;20946;-56
2021/06/29 04:28:53;;;;;;;9.03;8.13;;;;;;;16.91;87.65;94683.84;1758167;80;21482;-57
2021/06/29 04:31:20;;;;;;;9.88;7.60;;;;;;;16.99;87.38;94679.36;1746101;81;21847;-56
2021/06/29 04:33:46;;;;;;;8.08;7.28;;;;;;;17.06;86.79;94681.08;1735139;79;20922;-56
2021/06/29 04:36:13;;;;;;;8.70;7.80;;;;;;;17.16;86.65;94687.24;1752229;80;21437;-57
2021/06/29 04:38:41;;;;;;;7.60;6.33;;;;;;;17.25;86.16;94686.45;1749350;80;20991;-58
2021/06/29 04:41:07;;;;;;;7.25;6.33;;;;;;;17.33;85.86;94679.20;1751245;80;21130;-58
2021/06/29 04:43:37;;;;;;;9.05;7.03;;;;;;;17.35;85.33;94678.73;1751603;80;21210;-58
2021/06/29 04:46:03;;;;;;;8.70;7.00;;;;;;;17.33;85.01;94678.44;1721977;82;21111;-59
2021/06/29 04:48:30;;;;;;;10.53;7.17;;;;;;;17.33;84.68;94667.31;1740915;80;21059;-59
2021/06/29 04:50:57;;;;;;;7.45;6.47;;;;;;;17.33;84.09;94663.91;1759076;80;21621;-58
2021/06/29 04:53:24;;;;;;;10.40;6.85;;;;;;;17.32;83.75;94672.09;1763920;80;20921;-58
2021/06/29 04:55:51;;;;;;;16.77;7.67;;;;;;;17.28;83.80;94672.95;1751557;80;21182;-57
2021/06/29 04:58:17;;;;;;;7.67;6.90;;;;;;;17.29;84.17;94673.73;1752810;80;20930;-56
2021/06/29 05:00:45;;;;;;;10.58;7.65;;;;;;;17.30;84.34;94672.47;1723554;82;21182;-56
2021/06/29 05:03:13;;;;;;;11.15;8.53;;;;;;;17.32;84.45;94675.52;1757281;80;21002;-58
2021/06/29 05:05:39;;;;;;;7.90;7.10;;;;;;;17.32;84.71;94680.44;1756716;80;21395;-56
2021/06/29 05:08:07;;;;;;;16.52;7.80;;;;;;;17.34;85.03;94676.59;1750394;80;21022;-56
2021/06/29 05:10:35;;;;;;;10.32;8.20;;;;;;;17.38;85.16;94677.74;1754947;80;20943;-57
2021/06/29 05:13:01;;;;;;;10.60;8.00;;;;;;;17.43;85.08;94671.48;1746511;80;20939;-57
2021/06/29 05:15:28;;;;;;;9.98;7.50;;;;;;;17.48;84.90;94666.59;1752445;80;21485;-56
2021/06/29 05:17:55;;;;;;;13.20;7.62;;;;;;;17.53;84.63;94670.03;1723103;80;21081;-57
2021/06/29 05:20:23;;;;;;;10.95;7.53;;;;;;;17.62;84.30;94665.70;1754704;80;21147;-58
2021/06/29 05:22:50;;;;;;;11.55;6.62;;;;;;;17.71;84.15;94676.62;1720010;82;20978;-58
2021/06/29 05:25:17;;;;;;;10.63;7.60;;;;;;;17.74;83.58;94683.98;1759131;80;21121;-58
2021/06/29 05:27:43;;;;;;;14.70;9.78;;;;;;;17.71;83.31;94677.41;1746756;80;21506;-58
2021/06/29 05:30:12;;;;;;;9.80;7.80;;;;;;;17.68;83.36;94663.71;1752464;80;20955;-57
2021/06/29 05:32:38;;;;;;;7.50;6.80;;;;;;;17.67;83.76;94660.16;1749015;80;21179;-57
2021/06/29 05:35:09;;;;;;;8.95;8.08;;;;;;;17.73;84.07;94659.58;1739737;80;21064;-57
2021/06/29 05:37:36;;;;;;;13.85;11.85;;;;;;;17.81;84.22;94652.94;1753847;80;20998;-57
2021/06/29 05:40:05;;;;;;;13.48;8.73;;;;;;;17.90;84.03;94652.73;1744836;81;20989;-56
2021/06/29 05:42:32;;;;;;;10.15;9.03;;;;;;;17.98;83.72;94655.95;1766466;80;21041;-57
2021/06/29 05:44:59;;;;;;;13.93;8.43;;;;;;;18.08;83.14;94663.47;1760916;80;21311;-57
2021/06/29 05:47:26;;;;;;;7.87;6.83;;;;;;;18.15;82.90;94665.81;1746878;80;20962;-56
2021/06/29 05:49:53;;;;;;;12.73;10.28;;;;;;;18.23;82.68;94662.81;1729947;80;21008;-58
2021/06/29 05:52:20;;;;;;;11.65;9.15;;;;;;;18.36;82.39;94658.98;1743487;79;21057;-60
2021/06/29 05:54:48;;;;;;;8.30;7.47;;;;;;;18.52;81.96;94665.27;1740235;80;21133;-57
2021/06/29 05:57:17;;;;;;;9.30;6.67;;;;;;;18.68;81.32;94653.41;1739254;79;21511;-61
2021/06/29 05:59:43;;;;;;;8.35;6.90;;;;;;;18.86;80.87;94655.73;1744004;79;21080;-57
2021/06/29 06:02:10;;;;;;;16.87;7.58;;;;;;;19.02;80.01;94646.66;1728097;80;21041;-57
2021/06/29 06:04:37;;;;;;;8.08;7.25;;;;;;;19.14;79.16;94648.22;1733118;80;21028;-55
2021/06/29 06:07:04;;;;;;;11.80;7.55;;;;;;;19.23;78.70;94642.41;1753610;80;21466;-63
2021/06/29 06:09:32;;;;;;;10.32;7.95;;;;;;;19.35;78.67;94638.38;1747556;79;21194;-60
2021/06/29 06:11:58;;;;;;;6.95;6.25;;;;;;;19.48;78.76;94643.45;1735600;80;22203;-63
2021/06/29 06:14:25;;;;;;;13.45;7.42;;;;;;;19.60;78.54;94637.36;1740089;80;21056;-60
2021/06/29 06:16:52;;;;;;;8.08;6.47;;;;;;;19.75;77.54;94637.11;1753021;80;21124;-58
2021/06/29 06:19:19;;;;;;;10.13;6.83;;;;;;;19.80;77.16;94627.34;1746556;79;21036;-67
2021/06/29 06:21:46;;;;;;;9.93;7.35;;;;;;;19.81;77.31;94637.23;1735400;80;21139;-62
2021/06/29 06:24:12;;;;;;;6.95;6.25;;;;;;;19.85;77.21;94630.76;1736889;80;21136;-62
2021/06/29 06:26:39;;;;;;;9.05;6.17;;;;;;;19.92;77.10;94623.89;1746745;79;21274;-66
2021/06/29 06:29:06;;;;;;;10.18;6.42;;;;;;;20.00;76.60;94616.50;1745416;79;21018;-63
2021/06/29 06:31:34;;;;;;;14.38;7.65;;;;;;;20.10;76.15;94615.75;1738396;79;21078;-61
2021/06/29 06:34:01;;;;;;;20.55;8.45;;;;;;;20.20;76.14;94613.56;1751135;80;21123;-57
2021/06/29 06:36:28;;;;;;;7.70;5.90;;;;;;;20.36;75.40;94617.59;1744869;80;21075;-61
2021/06/29 06:38:56;;;;;;;11.78;6.95;;;;;;;20.39;73.68;94631.93;1748726;80;21662;-64
2021/06/29 06:41:23;;;;;;;9.88;6.58;;;;;;;20.31;73.51;94625.33;1745231;80;21036;-62
2021/06/29 06:43:49;;;;;;;14.35;6.53;;;;;;;20.22;73.80;94628.42;1736986;79;21117;-60
2021/06/29 06:46:16;;;;;;;8.70;7.20;;;;;;;20.20;73.81;94622.59;1741419;80;21155;-60
2021/06/29 06:48:47;;;;;;;10.85;6.00;;;;;;;20.18;73.85;94623.74;1742290;80;21562;-61
2021/06/29 06:51:15;;;;;;;14.25;6.85;;;;;;;20.32;74.27;94612.88;1742675;80;21113;-57
2021/06/29 06:53:42;;;;;;;10.05;8.18;;;;;;;20.50;73.60;94615.88;1739769;80;21581;-55
2021/06/29 06:56:14;;;;;;;12.25;6.85;;;;;;;20.71;73.80;94610.72;1745664;80;21033;-58
2021/06/29 06:58:37;;;;;;;14.18;6.83;;;;;;;20.95;73.42;94606.66;1738028;80;21074;-57
2021/06/29 07:01:03;;;;;;;14.75;7.80;;;;;;;21.18;71.98;94606.63;1734559;80;21015;-60
2021/06/29 07:03:30;;;;;;;7.78;6.58;;;;;;;21.20;71.09;94611.07;1751700;80;21106;-56
2021/06/29 07:05:57;;;;;;;20.00;8.03;;;;;;;21.17;70.91;94605.12;1729289;80;21056;-63
2021/06/29 07:08:23;;;;;;;7.03;6.33;;;;;;;21.12;70.96;94612.91;1734598;79;21341;-58
2021/06/29 07:10:53;;;;;;;7.50;6.80;;;;;;;21.14;71.12;94611.76;1708801;81;21128;-60
2021/06/29 07:13:19;;;;;;;7.47;6.17;;;;;;;21.19;70.56;94610.95;1735371;81;20946;-61
2021/06/29 07:15:45;;;;;;;9.70;5.62;;;;;;;21.28;70.02;94609.25;1739881;81;21038;-62
2021/06/29 07:18:16;;;;;;;8.33;6.72;;;;;;;21.37;69.34;94611.72;1742308;80;21076;-63
2021/06/29 07:20:43;;;;;;;11.60;6.60;;;;;;;21.41;69.29;94599.59;1743027;80;20990;-61
2021/06/29 07:23:11;;;;;;;7.70;6.92;;;;;;;21.55;69.60;94597.06;1728202;80;21042;-67
2021/06/29 07:25:38;;;;;;;6.75;5.87;;;;;;;21.80;69.58;94594.48;1716410;80;21061;-63
2021/06/29 07:28:06;;;;;;;9.18;6.05;;;;;;;22.07;68.94;94598.41;1738791;80;20990;-61
2021/06/29 07:30:35;;;;;;;7.00;6.40;;;;;;;22.31;68.56;94595.59;1714287;81;21109;-65
2021/06/29 07:33:04;;;;;;;6.40;5.80;;;;;;;22.50;67.70;94593.61;1738653;79;21146;-58
2021/06/29 07:35:31;;;;;;;8.95;6.17;;;;;;;22.63;67.36;94583.23;1675848;83;21176;-65
2021/06/29 07:38:02;;;;;;;9.40;6.60;;;;;;;22.78;66.94;94592.60;1740790;79;21004;-66
2021/06/29 07:40:29;;;;;;;8.83;6.05;;;;;;;22.93;66.99;94598.53;1728232;80;21036;-65
2021/06/29 07:42:57;;;;;;;6.92;6.00;;;;;;;23.12;67.66;94590.25;1741988;80;21137;-69
2021/06/29 07:45:27;;;;;;;7.10;6.35;;;;;;;23.33;66.73;94588.41;1736972;80;21151;-62
2021/06/29 07:47:55;;;;;;;16.48;6.33;;;;;;;23.50;65.84;94590.31;1749360;80;21186;-61
2021/06/29 07:50:22;;;;;;;6.53;5.92;;;;;;;23.63;65.26;94590.99;1705614;81;21137;-62
2021/06/29 07:52:49;;;;;;;8.05;5.85;;;;;;;23.72;64.80;94592.75;1733673;80;21029;-58
2021/06/29 07:55:16;;;;;;;8.33;5.15;;;;;;;23.83;63.87;94592.61;1725393;80;21127;-59
2021/06/29 07:57:43;;;;;;;6.75;5.37;;;;;;;24.00;63.81;94594.48;1734165;80;21030;-62
2021/06/29 08:00:12;;;;;;;8.63;6.55;;;;;;;24.17;63.54;94585.84;1738788;79;21034;-59
2021/06/29 08:02:39;;;;;;;7.95;5.87;;;;;;;24.32;62.71;94581.08;1731308;80;21141;-60
2021/06/29 08:05:07;;;;;;;7.55;5.85;;;;;;;24.38;62.87;94571.91;1745670;80;21009;-58
2021/06/29 08:07:34;;;;;;;8.20;5.55;;;;;;;24.41;62.70;94568.75;1742124;80;21115;-58
2021/06/29 08:10:00;;;;;;;9.65;5.53;;;;;;;24.61;62.48;94580.03;1742010;80;22171;-57
2021/06/29 08:12:27;;;;;;;5.10;4.60;;;;;;;24.84;60.94;94586.70;1744474;80;22188;-57
2021/06/29 08:14:56;;;;;;;5.65;5.00;;;;;;;25.02;60.64;94581.58;1734976;80;21105;-57
2021/06/29 08:17:26;;;;;;;5.40;4.90;;;;;;;25.05;60.43;94579.84;1728314;80;21047;-59
2021/06/29 08:19:54;;;;;;;7.92;5.40;;;;;;;25.01;60.31;94578.66;1723708;81;21148;-57
2021/06/29 08:22:21;;;;;;;6.53;5.22;;;;;;;24.95;60.07;94579.44;1764173;80;21096;-60
2021/06/29 08:24:47;;;;;;;7.53;5.10;;;;;;;24.88;59.22;94582.90;1751718;80;21162;-57
2021/06/29 08:27:15;;;;;;;13.28;5.55;;;;;;;24.81;58.68;94582.17;1727072;80;21054;-57
2021/06/29 08:29:44;;;;;;;19.52;10.28;;;;;;;24.73;58.73;94582.06;1733420;80;21173;-58
2021/06/29 08:32:11;;;;;;;9.35;6.75;;;;;;;24.80;59.72;94580.66;1747118;80;21458;-59
2021/06/29 08:34:38;;;;;;;13.90;6.65;;;;;;;24.89;58.75;94576.73;1739700;80;20971;-57
2021/06/29 08:37:05;;;;;;;11.65;6.10;;;;;;;24.99;58.79;94568.59;1736475;80;21453;-61
2021/06/29 08:39:32;;;;;;;6.95;5.40;;;;;;;25.13;58.44;94568.67;1734167;80;21205;-59
2021/06/29 08:41:58;;;;;;;6.53;5.87;;;;;;;25.23;57.20;94559.87;1727442;80;21065;-59
2021/06/29 08:44:26;;;;;;;5.97;5.20;;;;;;;25.33;57.11;94553.23;1750846;80;20978;-60
2021/06/29 08:46:53;;;;;;;8.25;5.45;;;;;;;25.44;57.17;94562.06;1753587;80;21084;-59
2021/06/29 08:49:20;;;;;;;7.10;5.00;;;;;;;25.45;56.88;94557.30;1736261;79;21341;-61
2021/06/29 08:51:47;;;;;;;13.60;8.25;;;;;;;25.54;56.73;94551.84;1730581;80;21049;-60
2021/06/29 08:54:15;;;;;;;10.40;5.72;;;;;;;25.69;58.00;94550.58;1749499;80;21171;-62
2021/06/29 08:56:43;;;;;;;7.97;6.00;;;;;;;25.91;57.51;94548.63;1727285;80;20993;-68
2021/06/29 08:59:09;;;;;;;6.58;4.85;;;;;;;26.02;57.54;94548.45;1740028;79;21498;-60
2021/06/29 09:01:36;;;;;;;5.53;5.00;;;;;;;26.14;58.72;94548.23;1732611;79;21890;-63
2021/06/29 09:04:04;;;;;;;6.12;5.55;;;;;;;26.14;57.71;94552.47;1704444;80;21474;-64
2021/06/29 09:06:35;;;;;;;9.53;5.33;;;;;;;26.02;56.93;94543.45;1746743;80;21040;-59
2021/06/29 09:09:25;;;;;;;9.83;5.85;;;;;;;25.89;56.31;94552.66;1748199;80;21099;-63
2021/06/29 09:11:52;;;;;;;6.47;5.37;;;;;;;25.76;55.75;94550.66;1743143;79;21130;-62
2021/06/29 09:14:19;;;;;;;6.72;5.30;;;;;;;25.69;55.59;94550.58;1745494;80;21043;-61
2021/06/29 09:16:47;;;;;;;12.98;5.60;;;;;;;25.73;55.80;94548.94;1761081;80;20993;-59
2021/06/29 09:19:34;;;;;;;9.58;5.00;;;;;;;25.80;55.55;94539.01;1755742;80;21017;-58
2021/06/29 09:22:28;;;;;;;11.10;5.65;;;;;;;25.88;55.44;94546.92;1722897;81;21059;-58
2021/06/29 09:24:57;;;;;;;8.88;5.40;;;;;;;25.88;55.81;94544.10;1746246;80;21024;-62
2021/06/29 09:27:45;;;;;;;10.65;5.47;;;;;;;25.83;55.89;94537.27;1739183;81;21262;-60
2021/06/29 09:30:34;;;;;;;9.95;6.12;;;;;;;25.78;56.47;94535.34;1730812;80;21800;-61
2021/06/29 09:33:08;;;;;;;10.95;4.97;;;;;;;25.76;57.09;94530.15;1734199;80;21107;-62
2021/06/29 09:35:35;;;;;;;5.17;4.60;;;;;;;25.81;56.83;94534.91;1743663;80;21043;-56
2021/06/29 09:38:05;;;;;;;10.82;5.00;;;;;;;25.92;56.87;94533.23;1730619;81;22420;-61
2021/06/29 09:40:33;;;;;;;7.78;4.47;;;;;;;26.01;54.87;94530.66;1730211;80;21117;-59
2021/06/29 09:43:12;;;;;;;6.10;4.67;;;;;;;26.09;54.28;94530.82;1738407;80;21070;-61
2021/06/29 09:45:45;;;;;;;7.87;4.65;;;;;;;26.17;54.18;94528.05;1750079;81;20971;-61
2021/06/29 09:48:15;;;;;;;8.60;4.78;;;;;;;26.26;54.54;94527.53;1734971;80;21254;-61
2021/06/29 09:50:49;;;;;;;13.98;4.87;;;;;;;26.41;53.93;94512.87;1740067;80;22293;-61
2021/06/29 09:53:27;;;;;;;16.73;5.30;;;;;;;26.55;53.28;94506.48;1736735;80;21182;-63
2021/06/29 09:55:56;;;;;;;8.80;4.72;;;;;;;26.68;52.65;94502.12;1736763;80;21007;-64
2021/06/29 09:58:23;;;;;;;15.40;5.40;;;;;;;26.86;52.30;94507.46;1725010;80;22032;-61
2021/06/29 10:00:58;;;;;;;7.30;4.75;;;;;;;27.11;51.80;94500.05;1730010;81;21049;-61
2021/06/29 10:03:35;;;;;;;7.22;4.37;;;;;;;27.36;50.44;94491.15;1724992;82;21064;-63
2021/06/29 10:06:15;;;;;;;6.95;3.98;;;;;;;27.53;48.91;94485.70;1732420;80;21057;-61
2021/06/29 10:08:48;;;;;;;12.82;4.47;;;;;;;27.59;48.22;94479.88;1728428;81;21075;-56
2021/06/29 10:11:24;;;;;;;6.05;3.75;;;;;;;27.60;47.98;94479.29;1711355;81;21057;-58
2021/06/29 10:13:55;;;;;;;6.25;3.55;;;;;;;27.61;48.80;94472.31;1707308;80;21147;-59
2021/06/29 10:16:25;;;;;;;6.12;3.77;;;;;;;27.70;48.39;94468.94;1735543;80;21084;-59
2021/06/29 10:21:22;;;;;;;4.80;3.40;;;;;;;27.93;46.99;94481.78;1749221;80;21420;-59
2021/06/29 10:23:56;;;;;;;4.78;3.08;;;;;;;28.02;46.82;94486.11;1755368;80;20970;-59
2021/06/29 10:26:24;;;;;;;10.82;3.22;;;;;;;27.93;46.46;94476.13;1749018;80;21154;-59
2021/06/29 10:28:51;;;;;;;4.45;2.98;;;;;;;27.94;46.01;94481.11;1764945;80;21217;-59
2021/06/29 10:31:26;;;;;;;10.95;3.20;;;;;;;27.98;47.75;94481.47;1737763;80;21128;-59
2021/06/29 10:33:55;;;;;;;4.90;3.00;;;;;;;28.04;46.53;94480.64;1723062;82;21499;-59
2021/06/29 10:36:22;;;;;;;11.12;4.12;;;;;;;28.04;46.02;94479.96;1715128;80;21605;-59
2021/06/29 10:38:51;;;;;;;13.83;3.60;;;;;;;28.14;46.87;94475.89;1725928;81;22290;-58
2021/06/29 10:41:21;;;;;;;8.03;3.37;;;;;;;28.21;46.27;94475.14;1732941;80;21170;-56
2021/06/29 10:43:48;;;;;;;9.70;3.20;;;;;;;28.25;46.02;94471.26;1725557;80;21156;-58
2021/06/29 10:46:25;;;;;;;9.33;3.72;;;;;;;28.30;46.17;94480.20;1724256;82;21523;-59
2021/06/29 10:48:52;;;;;;;5.78;2.87;;;;;;;28.29;45.91;94477.28;1711890;81;21045;-58
2021/06/29 10:51:21;;;;;;;6.08;2.70;;;;;;;28.16;44.42;94477.48;1738210;80;21033;-60
2021/06/29 10:53:48;;;;;;;8.38;3.12;;;;;;;27.93;44.75;94473.20;1712703;81;21066;-58
2021/06/29 10:56:17;;;;;;;6.87;3.12;;;;;;;27.73;45.20;94490.45;1731743;82;21145;-58
2021/06/29 10:58:49;;;;;;;21.20;5.50;;;;;;;27.67;45.70;94479.97;1730455;80;21571;-61
2021/06/29 11:01:21;;;;;;;6.25;2.77;;;;;;;27.65;46.03;94486.09;1761573;80;21072;-60
2021/06/29 11:03:50;;;;;;;6.42;2.55;;;;;;;27.63;47.04;94479.59;1744246;80;21044;-59
2021/06/29 11:06:34;;;;;;;12.40;3.35;;;;;;;27.67;46.37;94474.31;1749058;80;21064;-58
2021/06/29 11:09:01;;;;;;;7.28;2.72;;;;;;;27.63;46.02;94476.00;1722839;81;21181;-58
2021/06/29 11:11:29;;;;;;;5.55;3.60;;;;;;;27.62;46.95;94476.65;1764410;80;21515;-60
2021/06/29 11:13:58;;;;;;;5.03;3.30;;;;;;;27.86;45.96;94470.47;1756146;80;21262;-63
2021/06/29 11:16:53;;;;;;;3.87;2.92;;;;;;;28.00;46.39;94464.71;1720673;80;21054;-60
2021/06/29 11:19:20;;;;;;;4.08;2.95;;;;;;;28.26;45.82;94460.03;1738282;81;21064;-66
2021/06/29 11:21:47;;;;;;;9.98;3.10;;;;;;;28.82;44.90;94462.31;1734408;80;21120;-63
2021/06/29 11:24:38;;;;;;;5.80;2.98;;;;;;;29.30;42.60;94459.53;1750751;80;21022;-63
2021/06/29 11:27:05;;;;;;;6.33;2.90;;;;;;;29.66;41.02;94454.20;1732675;81;21426;-63
2021/06/29 11:29:43;;;;;;;4.87;2.12;;;;;;;29.99;41.44;94455.67;1685761;81;21005;-63
2021/06/29 11:32:30;;;;;;;4.03;2.60;;;;;;;30.39;40.37;94452.01;1714331;82;21081;-63
2021/06/29 11:35:41;;;;;;;5.83;2.60;;;;;;;30.76;39.27;94440.91;1726122;80;21139;-62
2021/06/29 11:38:09;;;;;;;3.98;2.95;;;;;;;31.11;39.56;94445.84;1734324;79;21057;-61
2021/06/29 11:40:38;;;;;;;5.85;2.50;;;;;;;31.56;37.87;94450.22;1730019;80;21183;-64